Time;durP1;ratioP1;P1;durP2;ratioP2;P2;SDS_P1;SDS_P2;PMS_P1;PMS_P2;Temp;Humidity;BMP_temperature;BMP_pressure;BME280_temperature;BME280_humidity;BME280_pressure;Samples;Min_cycle;Max_cycle;Signal;HPM_P1;HPM_P2
2021/03/13 00:01:17;;;;;;;4.50;0.68;;;7.00;85.90;;;;;;4822374;29;20062;-77
2021/03/13 00:03:44;;;;;;;2.90;0.82;;;7.00;87.40;;;;;;4822846;29;20059;-77
2021/03/13 00:06:10;;;;;;;1.95;0.70;;;7.00;86.00;;;;;;4822673;29;20050;-78
2021/03/13 00:08:41;;;;;;;2.58;0.50;;;7.00;87.10;;;;;;4838128;29;20064;-76
2021/03/13 00:11:13;;;;;;;2.25;0.70;;;7.00;87.00;;;;;;4838283;29;20042;-78
2021/03/13 00:13:44;;;;;;;0.85;0.52;;;7.00;87.30;;;;;;4838228;29;20413;-78
2021/03/13 00:16:11;;;;;;;4.32;0.63;;;7.00;87.60;;;;;;4838341;29;20152;-77
2021/03/13 00:18:42;;;;;;;2.08;0.60;;;7.10;87.40;;;;;;4838069;29;20056;-77
2021/03/13 00:21:13;;;;;;;1.40;0.63;;;7.10;88.90;;;;;;4839599;29;20490;-77
2021/03/13 00:23:45;;;;;;;2.33;0.80;;;7.10;88.70;;;;;;4839867;29;20185;-77
2021/03/13 00:26:11;;;;;;;2.22;0.60;;;7.10;89.60;;;;;;4841289;29;20054;-78
2021/03/13 00:28:42;;;;;;;3.28;0.77;;;7.10;90.00;;;;;;4841067;29;20050;-78
2021/03/13 00:31:13;;;;;;;5.55;0.93;;;7.00;90.60;;;;;;4841465;29;20058;-77
2021/03/13 00:33:45;;;;;;;3.75;0.50;;;7.00;91.30;;;;;;4841433;29;20054;-77
2021/03/13 00:36:16;;;;;;;6.50;2.35;;;6.90;91.90;;;;;;4841501;29;20048;-77
2021/03/13 00:38:47;;;;;;;6.45;1.52;;;7.00;92.50;;;;;;4841097;29;20050;-79
2021/03/13 00:41:18;;;;;;;2.35;0.95;;;7.00;93.40;;;;;;4841269;29;20050;-78
2021/03/13 00:43:45;;;;;;;2.90;0.80;;;6.90;94.30;;;;;;4825825;29;20114;-77
2021/03/13 00:46:16;;;;;;;3.35;0.68;;;6.90;94.30;;;;;;4826062;29;20056;-76
2021/03/13 00:48:47;;;;;;;2.47;0.75;;;6.80;94.70;;;;;;4840789;29;20330;-77
2021/03/13 00:51:19;;;;;;;1.75;0.70;;;6.80;94.70;;;;;;4825827;29;20046;-78
2021/03/13 00:53:50;;;;;;;2.38;0.73;;;6.80;95.00;;;;;;4841065;29;20038;-77
2021/03/13 00:56:21;;;;;;;4.40;0.70;;;6.80;95.60;;;;;;4841054;29;20146;-77
2021/03/13 00:58:53;;;;;;;2.65;0.65;;;6.70;96.80;;;;;;4840723;29;20102;-79
2021/03/13 01:01:24;;;;;;;3.38;0.77;;;6.60;97.10;;;;;;4840729;29;20054;-77
2021/03/13 01:03:55;;;;;;;2.67;0.52;;;6.60;97.50;;;;;;4841016;29;20184;-77
2021/03/13 01:06:27;;;;;;;2.47;0.80;;;6.60;98.20;;;;;;4841028;29;20050;-76
2021/03/13 01:08:58;;;;;;;1.70;0.60;;;6.50;98.50;;;;;;4840456;29;20526;-79
2021/03/13 01:11:33;;;;;;;3.40;1.02;;;6.50;98.60;;;;;;4840936;29;20518;-77
2021/03/13 01:14:07;;;;;;;1.85;0.70;;;6.70;98.40;;;;;;4840534;29;20053;-77
2021/03/13 01:16:43;;;;;;;0.98;0.45;;;6.70;98.70;;;;;;4840637;29;20053;-77
2021/03/13 01:19:15;;;;;;;0.80;0.60;;;6.70;98.90;;;;;;4825211;29;20046;-77
2021/03/13 01:21:49;;;;;;;2.00;0.85;;;6.70;99.50;;;;;;4826281;29;20145;-77
2021/03/13 01:24:21;;;;;;;2.90;0.70;;;6.60;99.40;;;;;;4840237;29;20145;-77
2021/03/13 01:26:52;;;;;;;1.90;0.70;;;6.60;99.90;;;;;;4840392;29;20050;-79
2021/03/13 01:29:24;;;;;;;5.50;0.70;;;6.60;99.90;;;;;;4839642;29;20109;-77
2021/03/13 01:32:03;;;;;;;3.13;0.90;;;6.60;99.90;;;;;;4840274;29;20048;-77
2021/03/13 01:34:37;;;;;;;1.90;0.65;;;6.60;99.90;;;;;;4839888;29;20137;-78
2021/03/13 01:37:17;;;;;;;2.72;0.80;;;6.60;99.90;;;;;;4840416;29;20046;-77
2021/03/13 01:39:51;;;;;;;2.38;1.08;;;6.60;99.90;;;;;;4839982;29;20578;-77
2021/03/13 01:42:26;;;;;;;2.63;1.05;;;6.60;99.90;;;;;;4825048;29;20077;-77
2021/03/13 01:45:06;;;;;;;1.10;0.80;;;6.60;99.90;;;;;;4840174;29;20042;-79
2021/03/13 01:47:39;;;;;;;3.70;0.90;;;6.60;99.90;;;;;;4840091;29;20050;-77
2021/03/13 01:50:11;;;;;;;4.07;0.95;;;6.60;99.90;;;;;;4824878;29;20054;-77
2021/03/13 01:52:43;;;;;;;5.82;0.90;;;6.60;99.90;;;;;;4839921;29;20046;-77
2021/03/13 01:55:16;;;;;;;1.25;0.70;;;6.60;99.90;;;;;;4839920;29;20149;-77
2021/03/13 01:57:54;;;;;;;2.67;0.70;;;6.50;99.90;;;;;;4840934;29;20061;-77
2021/03/13 02:00:29;;;;;;;7.10;1.42;;;6.50;99.90;;;;;;4839690;29;20042;-77
2021/03/13 02:03:02;;;;;;;5.00;1.38;;;6.50;99.90;;;;;;4824546;29;20046;-78
2021/03/13 02:05:52;;;;;;;1.88;0.80;;;6.50;99.90;;;;;;4839791;29;20399;-77
2021/03/13 02:08:26;;;;;;;6.18;0.70;;;6.40;99.90;;;;;;4824376;29;20054;-77
2021/03/13 02:11:14;;;;;;;1.63;0.82;;;6.30;99.90;;;;;;4824532;29;20050;-77
2021/03/13 02:13:59;;;;;;;1.48;0.65;;;6.30;99.90;;;;;;4825255;29;20054;-77
2021/03/13 02:16:44;;;;;;;3.40;0.95;;;6.20;99.90;;;;;;4839352;29;20126;-77
2021/03/13 02:19:18;;;;;;;1.80;0.70;;;6.20;99.90;;;;;;4839230;29;20136;-77
2021/03/13 02:22:05;;;;;;;1.05;0.60;;;6.20;99.90;;;;;;4839383;29;20136;-77
2021/03/13 02:24:54;;;;;;;1.95;0.75;;;6.20;99.90;;;;;;4824068;29;20136;-77
2021/03/13 02:27:30;;;;;;;5.10;1.10;;;6.20;99.90;;;;;;4824091;29;20058;-77
2021/03/13 02:30:15;;;;;;;1.23;0.60;;;6.10;99.90;;;;;;4824211;29;20060;-77
2021/03/13 02:33:07;;;;;;;1.45;0.70;;;6.10;99.90;;;;;;4837939;29;20049;-77
2021/03/13 02:36:02;;;;;;;4.97;0.85;;;6.10;99.90;;;;;;4824329;29;20056;-77
2021/03/13 02:38:44;;;;;;;1.45;0.90;;;6.10;99.90;;;;;;4838796;29;20517;-77
2021/03/13 02:41:24;;;;;;;3.25;0.85;;;6.00;99.90;;;;;;4839136;29;20444;-77
2021/03/13 02:44:01;;;;;;;1.00;0.70;;;6.00;99.90;;;;;;4839446;29;20122;-77
2021/03/13 02:46:50;;;;;;;2.58;0.90;;;6.00;99.90;;;;;;4823614;29;20197;-77
2021/03/13 02:49:29;;;;;;;4.05;0.90;;;6.00;99.90;;;;;;4838997;29;20041;-77
2021/03/13 02:52:10;;;;;;;2.92;1.52;;;5.90;99.90;;;;;;4839191;29;20102;-77
2021/03/13 02:54:47;;;;;;;3.75;1.00;;;5.90;99.90;;;;;;4839098;29;20049;-77
2021/03/13 02:57:22;;;;;;;3.10;0.73;;;5.90;99.90;;;;;;4839037;29;20050;-77
2021/03/13 02:59:56;;;;;;;2.40;1.10;;;5.90;99.90;;;;;;4838835;29;20141;-77
2021/03/13 03:02:29;;;;;;;1.65;0.90;;;5.90;99.90;;;;;;4809833;29;20137;-77
2021/03/13 03:05:02;;;;;;;2.15;0.70;;;5.90;99.90;;;;;;4838867;29;20145;-77
2021/03/13 03:07:35;;;;;;;1.10;0.60;;;5.90;99.90;;;;;;4838881;29;20077;-77
2021/03/13 03:10:12;;;;;;;1.33;0.43;;;5.80;99.90;;;;;;4838790;29;20126;-77
2021/03/13 03:12:46;;;;;;;;;;;5.80;99.90;;;;;;4824016;29;20069;-77
2021/03/13 03:15:23;;;;;;;1.70;0.50;;;5.80;99.90;;;;;;4823671;29;20402;-77
2021/03/13 03:17:56;;;;;;;0.90;0.60;;;5.70;99.90;;;;;;4823395;29;20518;-77
2021/03/13 03:20:29;;;;;;;;;;;5.70;99.90;;;;;;4839081;29;20081;-78
2021/03/13 03:23:02;;;;;;;3.63;2.00;;;5.70;99.90;;;;;;4808851;29;19998;-78
2021/03/13 03:25:33;;;;;;;1.20;0.80;;;5.60;99.90;;;;;;4838953;29;20069;-77
2021/03/13 03:28:05;;;;;;;1.55;0.80;;;5.60;99.90;;;;;;4823357;29;20398;-76
2021/03/13 03:30:47;;;;;;;2.08;1.00;;;5.60;99.90;;;;;;4838508;29;20528;-79
2021/03/13 03:33:21;;;;;;;4.03;1.05;;;5.60;99.90;;;;;;4838640;29;20038;-77
2021/03/13 03:35:59;;;;;;;1.90;1.30;;;5.50;99.90;;;;;;4838724;29;20050;-77
2021/03/13 03:38:33;;;;;;;2.50;1.30;;;5.50;99.90;;;;;;4823229;29;20056;-77
2021/03/13 03:41:08;;;;;;;1.85;1.20;;;5.50;99.90;;;;;;4838885;29;20046;-77
2021/03/13 03:43:48;;;;;;;2.33;1.15;;;5.40;99.90;;;;;;4823648;29;20471;-77
2021/03/13 03:46:25;;;;;;;4.93;1.20;;;5.50;99.90;;;;;;4837433;29;20046;-79
2021/03/13 03:48:57;;;;;;;2.13;1.27;;;5.50;99.90;;;;;;4838566;29;20215;-78
2021/03/13 03:51:35;;;;;;;2.42;1.20;;;5.50;99.90;;;;;;4838707;29;20052;-77
2021/03/13 03:54:14;;;;;;;1.60;1.00;;;5.50;99.90;;;;;;4823574;29;20434;-77
2021/03/13 03:56:47;;;;;;;5.22;1.20;;;5.50;99.90;;;;;;4839191;29;20060;-78
2021/03/13 03:59:19;;;;;;;2.33;1.00;;;5.60;99.90;;;;;;4842000;29;20122;-77
2021/03/13 04:01:53;;;;;;;1.10;0.85;;;5.60;99.90;;;;;;4841665;29;20060;-77
2021/03/13 04:04:24;;;;;;;2.30;0.88;;;5.60;99.90;;;;;;4843409;29;20081;-77
2021/03/13 04:06:58;;;;;;;1.48;1.08;;;5.60;99.90;;;;;;4842122;29;20058;-77
2021/03/13 04:09:31;;;;;;;;;;;5.50;99.90;;;;;;4842278;29;20080;-77
2021/03/13 04:12:04;;;;;;;2.55;1.10;;;5.60;99.90;;;;;;4826706;29;19924;-77
2021/03/13 04:14:36;;;;;;;;;;;5.60;99.90;;;;;;4842490;29;20049;-77
2021/03/13 04:17:07;;;;;;;3.35;0.90;;;5.60;99.90;;;;;;4842089;29;19931;-78
2021/03/13 04:19:39;;;;;;;1.65;0.82;;;5.60;99.90;;;;;;4826706;29;20088;-77
2021/03/13 04:22:06;;;;;;;4.65;1.70;;;5.60;99.90;;;;;;4826655;29;20056;-77
2021/03/13 04:24:38;;;;;;;1.42;0.80;;;5.60;99.90;;;;;;4842171;29;20413;-78
2021/03/13 04:27:10;;;;;;;3.70;0.80;;;5.70;99.90;;;;;;4841881;29;20057;-78
2021/03/13 04:29:41;;;;;;;2.78;1.02;;;5.70;99.90;;;;;;4841456;29;20073;-77
2021/03/13 04:32:17;;;;;;;2.95;1.52;;;5.70;99.90;;;;;;4841827;29;20056;-77
2021/03/13 04:34:49;;;;;;;1.52;0.73;;;5.70;99.90;;;;;;4826411;29;20042;-78
2021/03/13 04:37:22;;;;;;;1.80;0.80;;;5.70;99.90;;;;;;4841742;29;20049;-77
2021/03/13 04:39:54;;;;;;;2.20;1.17;;;5.80;99.90;;;;;;4811622;29;20110;-77
2021/03/13 04:42:25;;;;;;;1.30;0.80;;;5.70;99.90;;;;;;4841521;29;20057;-77
2021/03/13 04:44:57;;;;;;;1.92;0.80;;;5.80;99.90;;;;;;4826257;29;20061;-77
2021/03/13 04:47:28;;;;;;;2.58;0.80;;;5.80;99.90;;;;;;4826311;29;20049;-78
2021/03/13 04:49:54;;;;;;;1.90;0.65;;;5.80;99.90;;;;;;4841220;29;20058;-77
2021/03/13 04:52:26;;;;;;;1.77;0.80;;;5.80;99.90;;;;;;4841747;29;20046;-78
2021/03/13 04:54:58;;;;;;;1.67;0.98;;;5.80;99.90;;;;;;4841666;29;20050;-77
2021/03/13 04:57:30;;;;;;;1.98;0.80;;;5.80;99.90;;;;;;4842693;29;20506;-77
2021/03/13 05:00:06;;;;;;;1.40;0.70;;;5.80;99.90;;;;;;4825761;29;20057;-77
2021/03/13 05:02:38;;;;;;;1.15;1.02;;;5.80;99.90;;;;;;4840750;29;20053;-77
2021/03/13 05:05:10;;;;;;;2.00;0.75;;;5.70;99.90;;;;;;4841293;29;20494;-77
2021/03/13 05:07:41;;;;;;;3.33;0.90;;;5.80;99.90;;;;;;4825884;29;20050;-78
2021/03/13 05:10:14;;;;;;;1.80;0.93;;;5.80;99.90;;;;;;4825302;29;20073;-77
2021/03/13 05:12:45;;;;;;;2.90;0.70;;;5.80;99.90;;;;;;4840891;29;20054;-79
2021/03/13 05:15:17;;;;;;;3.58;0.80;;;5.80;99.90;;;;;;4824652;29;20077;-77
2021/03/13 05:17:48;;;;;;;1.60;0.80;;;5.80;99.90;;;;;;4839153;29;20526;-77
2021/03/13 05:20:20;;;;;;;2.67;0.55;;;5.80;99.90;;;;;;4824164;29;20107;-77
2021/03/13 05:22:52;;;;;;;0.75;0.57;;;5.80;99.90;;;;;;4839486;29;20505;-77
2021/03/13 05:25:23;;;;;;;1.60;0.60;;;5.80;99.90;;;;;;4839443;29;20102;-77
2021/03/13 05:27:50;;;;;;;2.05;0.70;;;5.80;99.90;;;;;;4823556;29;20581;-78
2021/03/13 05:30:22;;;;;;;3.72;0.60;;;5.80;99.90;;;;;;4824322;29;20060;-78
2021/03/13 05:32:53;;;;;;;3.03;0.68;;;5.80;99.90;;;;;;4824094;29;20053;-78
2021/03/13 05:35:24;;;;;;;3.40;0.88;;;5.80;99.90;;;;;;4839433;29;20103;-78
2021/03/13 05:37:55;;;;;;;1.00;0.60;;;5.80;99.90;;;;;;4838932;29;20057;-77
2021/03/13 05:40:27;;;;;;;2.90;0.93;;;5.80;99.90;;;;;;4838868;29;20049;-79
2021/03/13 05:42:58;;;;;;;4.68;1.77;;;5.80;99.90;;;;;;4839211;29;20052;-78
2021/03/13 05:45:31;;;;;;;0.73;0.60;;;5.90;99.90;;;;;;4824044;29;20087;-78
2021/03/13 05:48:03;;;;;;;2.10;0.82;;;5.90;99.90;;;;;;4838626;29;20145;-79
2021/03/13 05:50:35;;;;;;;3.25;0.73;;;6.00;99.90;;;;;;4838956;29;20099;-78
2021/03/13 05:53:10;;;;;;;2.10;0.63;;;6.00;99.90;;;;;;4839159;29;20149;-78
2021/03/13 05:55:42;;;;;;;1.25;0.70;;;5.90;99.90;;;;;;4839151;29;20054;-77
2021/03/13 05:58:14;;;;;;;2.08;0.73;;;5.90;99.90;;;;;;4838426;29;20506;-78
2021/03/13 06:00:45;;;;;;;2.22;0.60;;;5.90;99.90;;;;;;4823616;29;20046;-77
2021/03/13 06:03:17;;;;;;;2.00;0.77;;;6.00;99.90;;;;;;4838954;29;20050;-77
2021/03/13 06:05:48;;;;;;;2.50;0.88;;;6.00;99.90;;;;;;4823844;29;20413;-77
2021/03/13 06:08:20;;;;;;;1.17;0.65;;;5.90;99.90;;;;;;4838292;29;20052;-78
2021/03/13 06:10:51;;;;;;;1.27;0.60;;;6.00;99.90;;;;;;4838838;29;20042;-79
2021/03/13 06:13:23;;;;;;;1.85;0.52;;;6.00;99.90;;;;;;4838644;29;20145;-77
2021/03/13 06:15:55;;;;;;;1.70;0.70;;;6.00;99.90;;;;;;4823419;29;20074;-77
2021/03/13 06:18:21;;;;;;;2.20;0.80;;;6.10;99.90;;;;;;4837977;29;20088;-77
2021/03/13 06:20:53;;;;;;;1.38;0.60;;;6.10;99.90;;;;;;4820365;29;20052;-76
2021/03/13 06:23:33;;;;;;;1.75;0.80;;;6.20;99.90;;;;;;4820523;29;20050;-77
2021/03/13 06:26:05;;;;;;;3.33;0.70;;;6.20;99.90;;;;;;4805861;29;20133;-77
2021/03/13 06:28:36;;;;;;;2.05;0.60;;;6.20;99.90;;;;;;4804455;29;20070;-77
2021/03/13 06:31:12;;;;;;;0.70;0.50;;;6.30;99.90;;;;;;4805679;29;20050;-78
2021/03/13 06:33:44;;;;;;;7.25;3.67;;;6.40;99.90;;;;;;4804760;29;20076;-76
2021/03/13 06:36:20;;;;;;;25.10;11.70;;;6.40;99.90;;;;;;4805025;29;20077;-77
2021/03/13 06:38:52;;;;;;;4.07;1.63;;;6.40;99.90;;;;;;4818579;29;20077;-77
2021/03/13 06:41:24;;;;;;;5.10;2.22;;;6.50;99.90;;;;;;4805618;29;20073;-77
2021/03/13 06:43:57;;;;;;;4.50;2.28;;;6.50;99.90;;;;;;4804809;29;20161;-77
2021/03/13 06:46:29;;;;;;;9.23;4.55;;;6.50;99.90;;;;;;4820110;29;20056;-78
2021/03/13 06:49:01;;;;;;;2.40;0.77;;;6.50;99.90;;;;;;4820695;29;20578;-77
2021/03/13 06:51:38;;;;;;;0.80;0.70;;;6.50;99.90;;;;;;4819996;29;20129;-79
2021/03/13 06:54:15;;;;;;;3.67;0.70;;;6.50;99.90;;;;;;4794793;29;20189;-77
2021/03/13 06:56:52;;;;;;;1.33;0.55;;;6.50;99.90;;;;;;4796465;29;20662;-78
2021/03/13 07:02:07;;;;;;;1.33;0.70;;;6.50;99.90;;;;;;4797230;29;20054;-78
2021/03/13 07:04:45;;;;;;;2.17;0.70;;;6.60;99.90;;;;;;4796847;29;20057;-77
2021/03/13 07:07:30;;;;;;;3.45;1.00;;;6.70;99.90;;;;;;4796680;29;20052;-77
2021/03/13 07:10:06;;;;;;;2.42;0.60;;;6.80;99.90;;;;;;4800187;29;20051;-77
2021/03/13 07:12:40;;;;;;;4.47;0.70;;;6.80;99.90;;;;;;4801234;29;20495;-77
2021/03/13 07:15:12;;;;;;;2.97;0.70;;;6.90;99.90;;;;;;4787523;29;20046;-77
2021/03/13 07:17:51;;;;;;;4.40;1.25;;;6.90;99.90;;;;;;4800053;29;20053;-77
2021/03/13 07:20:32;;;;;;;2.58;1.35;;;7.00;99.90;;;;;;4788087;29;20051;-78
2021/03/13 07:23:05;;;;;;;2.22;1.08;;;6.90;99.90;;;;;;4804766;29;20050;-77
2021/03/13 07:25:32;;;;;;;1.70;0.73;;;7.00;99.90;;;;;;4819376;29;20142;-78
2021/03/13 07:28:06;;;;;;;5.10;0.82;;;7.00;99.90;;;;;;4812839;29;20058;-77
2021/03/13 07:30:39;;;;;;;2.45;0.95;;;7.10;99.90;;;;;;4788669;29;20149;-77
2021/03/13 07:33:11;;;;;;;2.63;1.30;;;7.10;99.90;;;;;;4805879;29;20050;-77
2021/03/13 07:35:49;;;;;;;1.55;0.77;;;7.10;99.90;;;;;;4823912;29;20052;-77
2021/03/13 07:38:23;;;;;;;1.88;0.70;;;7.00;99.90;;;;;;4822114;29;20141;-77
2021/03/13 07:40:54;;;;;;;2.38;0.77;;;7.10;99.90;;;;;;4823047;29;20133;-77
2021/03/13 07:43:27;;;;;;;4.45;1.92;;;7.20;99.90;;;;;;4793597;29;20068;-78
2021/03/13 07:45:59;;;;;;;2.67;0.70;;;7.20;99.90;;;;;;4808732;29;20051;-78
2021/03/13 07:48:27;;;;;;;2.85;0.70;;;7.30;99.90;;;;;;4807222;29;20141;-79
2021/03/13 07:50:58;;;;;;;3.50;0.90;;;7.40;99.90;;;;;;4807855;29;20046;-78
2021/03/13 07:53:32;;;;;;;4.30;1.15;;;7.40;99.90;;;;;;4808480;29;20051;-77
2021/03/13 07:56:08;;;;;;;4.20;2.05;;;7.40;99.90;;;;;;4808508;29;20517;-78
2021/03/13 07:58:43;;;;;;;2.60;1.30;;;7.40;99.90;;;;;;4807114;29;20056;-77
2021/03/13 08:01:14;;;;;;;3.50;1.27;;;7.50;99.90;;;;;;4807533;29;20422;-78
2021/03/13 08:03:48;;;;;;;4.07;1.75;;;7.50;99.90;;;;;;4793155;29;20046;-77
2021/03/13 08:06:19;;;;;;;;;;;7.60;99.90;;;;;;4823148;29;20050;-77
2021/03/13 08:08:53;;;;;;;2.17;0.57;;;7.60;99.90;;;;;;4819911;29;19929;-77
2021/03/13 08:11:28;;;;;;;2.13;0.80;;;7.60;99.90;;;;;;4790361;29;20063;-77
2021/03/13 08:14:00;;;;;;;2.83;1.08;;;7.60;99.90;;;;;;4818562;29;20082;-77
2021/03/13 08:16:41;;;;;;;2.08;0.70;;;7.70;99.90;;;;;;4789362;29;20042;-77
2021/03/13 08:19:34;;;;;;;1.10;0.52;;;7.70;99.90;;;;;;4818160;29;20043;-77
2021/03/13 08:22:14;;;;;;;1.55;0.60;;;7.80;99.90;;;;;;4789051;29;20062;-77
2021/03/13 08:24:51;;;;;;;3.47;1.98;;;7.90;99.90;;;;;;4789794;29;20046;-77
2021/03/13 08:27:34;;;;;;;3.60;0.82;;;8.00;99.90;;;;;;4789770;29;20055;-77
2021/03/13 08:30:26;;;;;;;2.55;0.90;;;8.00;99.90;;;;;;4789304;29;20051;-77
2021/03/13 08:32:57;;;;;;;1.38;0.70;;;8.00;99.90;;;;;;4788835;29;20059;-78
2021/03/13 08:35:46;;;;;;;1.23;0.50;;;8.00;99.90;;;;;;4803304;29;20062;-77
2021/03/13 08:38:19;;;;;;;2.13;0.93;;;8.00;98.80;;;;;;4804550;29;20388;-77
2021/03/13 08:40:53;;;;;;;3.05;1.80;;;8.10;98.40;;;;;;4788537;29;20073;-78
2021/03/13 08:43:34;;;;;;;;;;;8.20;98.20;;;;;;4802595;29;20414;-77
2021/03/13 08:46:47;;;;;;;1.15;0.50;;;8.30;96.70;;;;;;4788624;29;19978;-78
2021/03/13 08:49:23;;;;;;;1.88;0.70;;;8.50;96.70;;;;;;4788065;29;20070;-77
2021/03/13 08:52:10;;;;;;;1.52;0.93;;;8.50;95.80;;;;;;4810546;29;20073;-77
2021/03/13 08:54:41;;;;;;;3.53;0.70;;;8.50;95.50;;;;;;4806751;29;20503;-77
2021/03/13 08:57:14;;;;;;;2.13;0.80;;;8.50;94.20;;;;;;4807112;29;20153;-78
2021/03/13 08:59:54;;;;;;;3.97;1.30;;;8.40;93.80;;;;;;4829894;29;20047;-77
2021/03/13 09:02:40;;;;;;;1.42;1.15;;;8.40;94.30;;;;;;4821363;29;20133;-77
2021/03/13 09:05:29;;;;;;;3.15;1.40;;;8.50;94.30;;;;;;4821595;29;20050;-77
2021/03/13 09:08:00;;;;;;;1.17;0.50;;;8.50;93.70;;;;;;4821248;29;20046;-76
2021/03/13 09:10:36;;;;;;;1.83;0.60;;;8.50;93.60;;;;;;4821180;29;20059;-77
2021/03/13 09:13:17;;;;;;;1.80;0.77;;;8.50;94.10;;;;;;4821162;29;20418;-79
2021/03/13 09:15:49;;;;;;;1.95;0.70;;;8.50;93.90;;;;;;4821457;29;20053;-77
2021/03/13 09:18:20;;;;;;;3.10;0.80;;;8.50;93.80;;;;;;4805964;29;20058;-77
2021/03/13 09:20:51;;;;;;;2.38;0.65;;;8.50;93.90;;;;;;4821257;29;20141;-76
2021/03/13 09:23:22;;;;;;;1.65;0.60;;;8.50;93.30;;;;;;4821296;29;20141;-78
2021/03/13 09:25:53;;;;;;;3.05;0.70;;;8.60;92.10;;;;;;4821240;29;20531;-78
2021/03/13 09:28:25;;;;;;;1.80;0.88;;;8.60;91.60;;;;;;4820509;29;20078;-77
2021/03/13 09:30:51;;;;;;;3.97;0.70;;;8.70;91.80;;;;;;4821100;29;20053;-77
2021/03/13 09:33:22;;;;;;;1.73;0.50;;;8.70;91.50;;;;;;4805956;29;20141;-78
2021/03/13 09:35:53;;;;;;;2.13;0.70;;;8.80;91.40;;;;;;4805832;29;20053;-77
2021/03/13 09:38:24;;;;;;;1.98;0.57;;;8.90;91.60;;;;;;4805306;29;20054;-77
2021/03/13 09:40:56;;;;;;;2.83;0.52;;;8.90;90.20;;;;;;4805758;29;20465;-78
2021/03/13 09:43:37;;;;;;;1.30;0.60;;;9.00;90.40;;;;;;4820946;29;20046;-77
2021/03/13 09:46:18;;;;;;;0.80;0.60;;;9.00;90.10;;;;;;4822152;29;20533;-78
2021/03/13 09:48:45;;;;;;;2.30;0.40;;;9.10;88.70;;;;;;4821449;29;20051;-78
2021/03/13 09:51:17;;;;;;;1.92;1.02;;;9.20;87.70;;;;;;4791315;29;20192;-77
2021/03/13 09:53:49;;;;;;;2.55;0.65;;;9.20;89.10;;;;;;4820958;29;20055;-77
2021/03/13 09:56:30;;;;;;;2.05;0.47;;;9.20;87.50;;;;;;4820572;29;20038;-77
2021/03/13 09:59:02;;;;;;;1.25;0.40;;;9.30;88.70;;;;;;4820331;29;20046;-77
2021/03/13 10:01:35;;;;;;;1.48;0.32;;;9.40;83.20;;;;;;4820560;29;20050;-77
2021/03/13 10:04:07;;;;;;;1.10;0.40;;;9.40;81.60;;;;;;4820370;29;20137;-77
2021/03/13 10:06:40;;;;;;;0.38;0.38;;;9.50;79.80;;;;;;4820553;29;20530;-77
2021/03/13 10:09:12;;;;;;;1.13;0.35;;;9.50;82.90;;;;;;4821103;29;20510;-77
2021/03/13 10:11:44;;;;;;;0.90;0.30;;;9.50;79.50;;;;;;4820574;29;20055;-77
2021/03/13 10:14:19;;;;;;;0.93;0.40;;;9.60;79.60;;;;;;4820200;29;20042;-76
2021/03/13 10:16:47;;;;;;;0.80;0.40;;;9.60;79.20;;;;;;4804764;29;20062;-77
2021/03/13 10:19:38;;;;;;;0.80;0.65;;;9.60;77.70;;;;;;4819673;29;20050;-76
2021/03/13 10:22:11;;;;;;;5.65;1.00;;;9.60;75.90;;;;;;4820077;29;20055;-76
2021/03/13 10:24:42;;;;;;;0.65;0.40;;;9.60;77.00;;;;;;4819897;29;20154;-77
2021/03/13 10:27:28;;;;;;;0.60;0.32;;;9.70;76.60;;;;;;4820268;29;20060;-77
2021/03/13 10:30:01;;;;;;;1.20;0.43;;;9.70;76.00;;;;;;4819621;29;20046;-77
2021/03/13 10:32:37;;;;;;;1.80;0.40;;;9.80;75.30;;;;;;4821488;29;20054;-77
2021/03/13 10:35:10;;;;;;;0.98;0.43;;;10.00;77.40;;;;;;4819974;29;20503;-77
2021/03/13 10:37:46;;;;;;;2.95;0.40;;;10.10;74.60;;;;;;4813541;29;20046;-77
2021/03/13 10:40:37;;;;;;;0.43;0.35;;;10.20;72.30;;;;;;4822505;29;20111;-77
2021/03/13 10:43:44;;;;;;;0.93;0.77;;;10.40;72.20;;;;;;4822825;29;20060;-77
2021/03/13 10:46:18;;;;;;;1.52;0.60;;;10.60;72.60;;;;;;4823509;29;20056;-77
2021/03/13 10:48:49;;;;;;;1.63;0.70;;;10.70;70.60;;;;;;4822216;29;20395;-77
2021/03/13 10:51:35;;;;;;;0.95;0.50;;;10.60;70.00;;;;;;4822628;29;20050;-76
2021/03/13 10:54:21;;;;;;;1.38;0.30;;;10.60;70.50;;;;;;4837770;29;20058;-77
2021/03/13 10:56:48;;;;;;;1.33;0.43;;;10.50;69.60;;;;;;4822613;29;20136;-77
2021/03/13 10:59:33;;;;;;;0.82;0.50;;;10.50;69.90;;;;;;4822106;29;20558;-76
2021/03/13 11:02:05;;;;;;;1.10;0.40;;;10.50;69.10;;;;;;4822613;29;20053;-77
2021/03/13 11:04:36;;;;;;;1.65;0.60;;;10.60;70.50;;;;;;4837011;29;20049;-77
2021/03/13 11:07:07;;;;;;;2.08;0.47;;;10.70;68.70;;;;;;4821172;29;20521;-76
2021/03/13 11:09:39;;;;;;;1.92;0.50;;;10.70;69.50;;;;;;4836247;29;20052;-77
2021/03/13 11:12:10;;;;;;;0.57;0.32;;;10.60;66.40;;;;;;4822507;29;20054;-76
2021/03/13 11:14:41;;;;;;;2.08;0.40;;;10.70;68.00;;;;;;4827453;29;20056;-77
2021/03/13 11:17:12;;;;;;;0.63;0.30;;;10.70;67.60;;;;;;4833250;29;20050;-76
2021/03/13 11:19:44;;;;;;;1.25;0.40;;;10.80;66.80;;;;;;4820990;29;20141;-77
2021/03/13 11:22:15;;;;;;;1.25;0.50;;;10.90;66.00;;;;;;4819347;29;20051;-77
2021/03/13 11:24:46;;;;;;;1.40;0.47;;;10.90;62.40;;;;;;4808904;29;20056;-77
2021/03/13 11:27:17;;;;;;;0.57;0.40;;;11.00;64.10;;;;;;4833428;29;20362;-76
2021/03/13 11:29:43;;;;;;;1.00;0.22;;;11.00;61.90;;;;;;4816919;29;20042;-76
2021/03/13 11:32:15;;;;;;;2.85;0.30;;;11.10;61.90;;;;;;4837504;29;20631;-77
2021/03/13 11:34:46;;;;;;;0.65;0.30;;;11.10;60.50;;;;;;4822420;29;20053;-78
2021/03/13 11:37:17;;;;;;;0.68;0.30;;;11.20;61.10;;;;;;4830363;29;20414;-76
2021/03/13 11:39:49;;;;;;;0.63;0.30;;;11.30;60.70;;;;;;4810153;29;20046;-77
2021/03/13 11:42:20;;;;;;;0.60;0.30;;;11.20;61.20;;;;;;4823976;29;20640;-76
2021/03/13 11:44:53;;;;;;;0.60;0.30;;;11.20;59.70;;;;;;4819927;29;20061;-76
2021/03/13 11:47:25;;;;;;;1.57;0.27;;;11.20;58.60;;;;;;4821620;29;20794;-76
2021/03/13 11:49:56;;;;;;;0.50;0.20;;;11.20;58.80;;;;;;4819324;29;20046;-76
2021/03/13 11:52:27;;;;;;;1.05;0.47;;;11.10;58.90;;;;;;4803592;29;20053;-77
2021/03/13 11:54:58;;;;;;;0.50;0.20;;;11.10;59.30;;;;;;4805269;29;20544;-77
2021/03/13 11:57:25;;;;;;;0.30;0.30;;;11.10;60.60;;;;;;4824114;29;20070;-77
2021/03/13 11:59:56;;;;;;;1.55;0.20;;;11.10;60.30;;;;;;4804128;29;20519;-76
2021/03/13 12:02:22;;;;;;;2.30;0.20;;;11.00;59.20;;;;;;4819353;29;20141;-76
2021/03/13 12:04:54;;;;;;;2.22;0.88;;;11.00;58.50;;;;;;4785226;29;20511;-76
2021/03/13 12:07:25;;;;;;;1.30;0.30;;;10.90;59.50;;;;;;4785350;29;20070;-77
2021/03/13 12:09:56;;;;;;;0.95;0.52;;;10.90;59.80;;;;;;4783712;29;20057;-76
2021/03/13 12:12:28;;;;;;;1.17;0.20;;;10.90;59.00;;;;;;4799135;29;20049;-77
2021/03/13 12:14:59;;;;;;;1.58;0.28;;;10.90;59.00;;;;;;4805704;29;20066;-77
2021/03/13 12:17:30;;;;;;;1.65;0.20;;;10.90;59.50;;;;;;4826913;29;20043;-76
2021/03/13 12:20:05;;;;;;;0.45;0.30;;;10.80;59.90;;;;;;4822604;29;20070;-76
2021/03/13 12:22:31;;;;;;;0.60;0.20;;;10.90;59.40;;;;;;4806437;29;20069;-77
2021/03/13 12:25:07;;;;;;;0.20;0.20;;;10.90;59.70;;;;;;4807918;29;20100;-76
2021/03/13 12:27:41;;;;;;;0.55;0.20;;;10.90;60.30;;;;;;4806919;29;20046;-76
2021/03/13 12:30:14;;;;;;;1.02;0.43;;;10.90;58.20;;;;;;4806922;29;20046;-77
2021/03/13 12:32:46;;;;;;;1.13;0.35;;;10.90;59.00;;;;;;4822052;29;20050;-77
2021/03/13 12:35:17;;;;;;;1.27;0.30;;;10.90;58.80;;;;;;4807052;29;20410;-76
2021/03/13 12:37:48;;;;;;;0.50;0.20;;;10.90;58.90;;;;;;4821506;29;20050;-76
2021/03/13 12:40:20;;;;;;;0.63;0.20;;;10.90;58.60;;;;;;4806632;29;20475;-77
2021/03/13 12:42:51;;;;;;;1.20;0.30;;;11.00;58.30;;;;;;4821721;29;20046;-76
2021/03/13 12:45:22;;;;;;;0.20;0.20;;;11.00;58.20;;;;;;4806713;29;20056;-76
2021/03/13 12:47:54;;;;;;;0.75;0.50;;;11.00;58.90;;;;;;4821485;29;20838;-78
2021/03/13 12:50:25;;;;;;;1.50;0.38;;;11.10;58.40;;;;;;4807289;29;20046;-77
2021/03/13 12:52:56;;;;;;;0.63;0.40;;;11.10;57.80;;;;;;4821907;29;20056;-76
2021/03/13 12:55:27;;;;;;;0.40;0.30;;;11.10;56.90;;;;;;4808761;29;20053;-76
2021/03/13 12:57:59;;;;;;;0.30;0.20;;;11.20;57.30;;;;;;4804971;29;20080;-76
2021/03/13 13:00:30;;;;;;;2.58;0.40;;;11.20;57.30;;;;;;4810076;29;20054;-77
2021/03/13 13:03:03;;;;;;;0.80;0.20;;;11.20;56.70;;;;;;4810748;29;20077;-76
2021/03/13 13:05:35;;;;;;;1.15;0.30;;;11.20;56.20;;;;;;4822898;29;20046;-78
2021/03/13 13:08:01;;;;;;;0.32;0.20;;;11.20;56.10;;;;;;4810259;29;20144;-77
2021/03/13 13:10:33;;;;;;;0.40;0.30;;;11.20;56.60;;;;;;4828692;29;20513;-76
2021/03/13 13:13:04;;;;;;;1.63;0.30;;;11.10;56.20;;;;;;4824240;29;20045;-77
2021/03/13 13:15:35;;;;;;;0.75;0.40;;;11.10;56.40;;;;;;4818085;29;20055;-76
2021/03/13 13:18:07;;;;;;;0.68;0.30;;;11.00;57.50;;;;;;4821965;29;20134;-76
2021/03/13 13:20:35;;;;;;;0.70;0.30;;;11.00;57.10;;;;;;4821399;29;20141;-76
2021/03/13 13:23:01;;;;;;;0.63;0.30;;;11.00;57.10;;;;;;4806625;29;20086;-76
2021/03/13 13:25:28;;;;;;;0.40;0.30;;;11.00;57.50;;;;;;4815905;29;20464;-76
2021/03/13 13:28:00;;;;;;;0.57;0.20;;;11.00;56.80;;;;;;4820800;29;20054;-76
2021/03/13 13:30:28;;;;;;;0.82;0.30;;;11.00;57.20;;;;;;4805572;29;20498;-76
2021/03/13 13:32:59;;;;;;;0.82;0.30;;;11.00;57.60;;;;;;4821130;29;20097;-77